Time;durP1;ratioP1;P1;durP2;ratioP2;P2;SDS_P1;SDS_P2;PMS_P1;PMS_P2;Temp;Humidity;BMP_temperature;BMP_pressure;BME280_temperature;BME280_humidity;BME280_pressure;Samples;Min_cycle;Max_cycle;Signal;HPM_P1;HPM_P2
2023/04/24 00:02:19;;;;;;;1.38;1.00;;;;;;;;;;4980448;28;20168;-71
2023/04/24 00:04:46;;;;;;;3.67;1.10;;;;;;;;;;4994392;28;20065;-71
2023/04/24 00:07:12;;;;;;;2.00;0.90;;;;;;;;;;4989499;28;20164;-69
2023/04/24 00:09:39;;;;;;;2.90;1.00;;;;;;;;;;5008243;28;20362;-71
2023/04/24 00:12:05;;;;;;;1.55;1.10;;;;;;;;;;5015057;28;20077;-71
2023/04/24 00:14:34;;;;;;;1.90;1.00;;;;;;;;;;5010748;28;21198;-70
2023/04/24 00:17:01;;;;;;;1.17;1.00;;;;;;;;;;4999033;28;20084;-71
2023/04/24 00:19:28;;;;;;;2.20;1.10;;;;;;;;;;4999248;28;20062;-70
2023/04/24 00:21:54;;;;;;;2.47;1.30;;;;;;;;;;5014298;28;20237;-70
2023/04/24 00:24:21;;;;;;;4.00;1.15;;;;;;;;;;5003927;28;20061;-70
2023/04/24 00:26:48;;;;;;;3.78;1.00;;;;;;;;;;5010742;28;20104;-71
2023/04/24 00:29:14;;;;;;;1.88;1.23;;;;;;;;;;5008834;28;20200;-71
2023/04/24 00:31:42;;;;;;;2.25;1.15;;;;;;;;;;5009003;28;20058;-69
2023/04/24 00:34:10;;;;;;;1.98;1.02;;;;;;;;;;5010554;28;20115;-72
2023/04/24 00:36:36;;;;;;;2.55;1.25;;;;;;;;;;5009827;28;20566;-70
2023/04/24 00:39:03;;;;;;;1.60;1.10;;;;;;;;;;5019946;28;20089;-71
2023/04/24 00:41:30;;;;;;;2.90;1.13;;;;;;;;;;5034449;28;20065;-70
2023/04/24 00:43:56;;;;;;;2.10;1.00;;;;;;;;;;5027670;28;20064;-70
2023/04/24 00:46:23;;;;;;;1.83;1.10;;;;;;;;;;5023687;28;20132;-71
2023/04/24 00:48:51;;;;;;;1.08;0.82;;;;;;;;;;5041874;28;20063;-70
2023/04/24 00:51:18;;;;;;;3.20;1.15;;;;;;;;;;5025579;28;20184;-69
2023/04/24 00:53:44;;;;;;;2.17;1.30;;;;;;;;;;5031340;28;20065;-70
2023/04/24 00:56:11;;;;;;;2.35;1.10;;;;;;;;;;5033053;28;20057;-69
2023/04/24 00:58:37;;;;;;;2.22;1.13;;;;;;;;;;5033054;28;20119;-69
2023/04/24 01:01:06;;;;;;;2.40;1.38;;;;;;;;;;5039628;28;20061;-69
2023/04/24 01:03:34;;;;;;;1.85;1.30;;;;;;;;;;5036228;28;20093;-70
2023/04/24 01:06:02;;;;;;;3.30;1.40;;;;;;;;;;5026629;28;20149;-69
2023/04/24 01:08:29;;;;;;;1.70;1.15;;;;;;;;;;5005459;28;20145;-70
2023/04/24 01:10:56;;;;;;;3.35;1.38;;;;;;;;;;5018931;28;20061;-68
2023/04/24 01:13:22;;;;;;;2.28;1.20;;;;;;;;;;5020910;28;20059;-69
2023/04/24 01:15:49;;;;;;;1.98;1.30;;;;;;;;;;5040229;28;20061;-69
2023/04/24 01:18:15;;;;;;;1.20;0.90;;;;;;;;;;5024775;28;20144;-70
2023/04/24 01:20:44;;;;;;;2.17;1.00;;;;;;;;;;5040288;28;20139;-69
2023/04/24 01:23:11;;;;;;;2.35;1.20;;;;;;;;;;5037395;28;20048;-69
2023/04/24 01:25:38;;;;;;;1.80;1.10;;;;;;;;;;5019219;28;20055;-69
2023/04/24 01:28:07;;;;;;;2.88;1.27;;;;;;;;;;5014876;28;20064;-69
2023/04/24 01:30:34;;;;;;;1.48;0.80;;;;;;;;;;5030410;28;20068;-70
2023/04/24 01:33:01;;;;;;;2.53;1.10;;;;;;;;;;5037370;28;20091;-69
2023/04/24 01:35:27;;;;;;;1.80;1.20;;;;;;;;;;5033178;28;20068;-69
2023/04/24 01:37:54;;;;;;;2.10;1.00;;;;;;;;;;5033799;28;20122;-69
2023/04/24 01:40:22;;;;;;;2.25;1.10;;;;;;;;;;5028151;28;20079;-70
2023/04/24 01:42:48;;;;;;;3.20;0.93;;;;;;;;;;5037564;28;20052;-69
2023/04/24 01:45:15;;;;;;;1.23;0.93;;;;;;;;;;5034537;28;20052;-70
2023/04/24 01:47:42;;;;;;;3.15;1.00;;;;;;;;;;5036449;28;20057;-70
2023/04/24 01:50:09;;;;;;;3.50;1.00;;;;;;;;;;5032937;28;20083;-70
2023/04/24 01:52:36;;;;;;;2.03;1.05;;;;;;;;;;5030980;28;20222;-68
2023/04/24 01:55:02;;;;;;;1.98;1.02;;;;;;;;;;5032387;28;20048;-69
2023/04/24 01:57:31;;;;;;;1.77;1.00;;;;;;;;;;5038851;28;20052;-69
2023/04/24 01:59:57;;;;;;;;;;;;;;;;;;5033317;28;20056;-69
2023/04/24 02:02:24;;;;;;;1.30;0.63;;;;;;;;;;5035512;28;19947;-70
2023/04/24 02:04:50;;;;;;;1.05;0.80;;;;;;;;;;5023105;28;20250;-71
2023/04/24 02:07:16;;;;;;;2.72;1.00;;;;;;;;;;5036302;28;20083;-69
2023/04/24 02:09:43;;;;;;;1.10;0.90;;;;;;;;;;5037622;28;20102;-69
2023/04/24 02:12:09;;;;;;;1.40;0.75;;;;;;;;;;5033850;28;20122;-69
2023/04/24 02:14:37;;;;;;;1.15;0.73;;;;;;;;;;5031345;28;20133;-70
2023/04/24 02:17:04;;;;;;;1.80;0.70;;;;;;;;;;5032864;28;20065;-68
2023/04/24 02:19:31;;;;;;;1.88;1.02;;;;;;;;;;5036040;28;20084;-70
2023/04/24 02:21:57;;;;;;;1.45;0.90;;;;;;;;;;5032682;28;20162;-69
2023/04/24 02:24:24;;;;;;;1.67;1.02;;;;;;;;;;5028351;28;20056;-69
2023/04/24 02:26:51;;;;;;;2.80;1.20;;;;;;;;;;5025629;28;20064;-68
2023/04/24 02:29:17;;;;;;;3.20;1.33;;;;;;;;;;5035418;28;20086;-69
2023/04/24 02:31:45;;;;;;;3.00;1.42;;;;;;;;;;5032866;28;20055;-67
2023/04/24 02:34:11;;;;;;;3.28;1.27;;;;;;;;;;5033219;28;20075;-70
2023/04/24 02:36:38;;;;;;;3.50;1.40;;;;;;;;;;5026918;28;20049;-69
2023/04/24 02:39:04;;;;;;;2.80;1.45;;;;;;;;;;5037332;28;20056;-68
2023/04/24 02:41:32;;;;;;;5.38;1.80;;;;;;;;;;5034796;28;20057;-69
2023/04/24 02:43:58;;;;;;;3.42;1.50;;;;;;;;;;5033829;28;20084;-67
2023/04/24 02:46:25;;;;;;;3.85;1.75;;;;;;;;;;5037483;28;20056;-69
2023/04/24 02:48:53;;;;;;;3.50;1.65;;;;;;;;;;5030223;28;20097;-68
2023/04/24 02:51:19;;;;;;;4.30;2.00;;;;;;;;;;5038151;28;20063;-68
2023/04/24 02:53:46;;;;;;;4.03;1.98;;;;;;;;;;5032952;28;20061;-68
2023/04/24 02:56:13;;;;;;;5.40;2.00;;;;;;;;;;5022951;28;20072;-68
2023/04/24 02:58:39;;;;;;;4.85;2.33;;;;;;;;;;5023769;28;20053;-68
2023/04/24 03:01:05;;;;;;;4.70;2.38;;;;;;;;;;5035609;28;20064;-67
2023/04/24 03:03:32;;;;;;;6.25;2.65;;;;;;;;;;5032778;28;20057;-69
2023/04/24 03:06:01;;;;;;;5.07;2.58;;;;;;;;;;5008774;28;20064;-68
2023/04/24 03:08:28;;;;;;;4.68;2.10;;;;;;;;;;5033245;28;20060;-68
2023/04/24 03:10:54;;;;;;;4.57;2.15;;;;;;;;;;5028191;28;20052;-69
2023/04/24 03:13:21;;;;;;;5.93;2.22;;;;;;;;;;5032345;28;20084;-68
2023/04/24 03:15:47;;;;;;;6.53;2.55;;;;;;;;;;5033007;28;20168;-68
2023/04/24 03:18:14;;;;;;;4.13;2.03;;;;;;;;;;5034620;28;20049;-67
2023/04/24 03:20:41;;;;;;;4.53;2.20;;;;;;;;;;5023952;28;20069;-67
2023/04/24 03:23:08;;;;;;;5.10;2.40;;;;;;;;;;5032791;28;20053;-68
2023/04/24 03:25:35;;;;;;;4.40;2.20;;;;;;;;;;5036737;28;20062;-68
2023/04/24 03:28:01;;;;;;;6.18;2.40;;;;;;;;;;5035620;28;20105;-67
2023/04/24 03:30:28;;;;;;;6.75;2.50;;;;;;;;;;5031596;28;20170;-67
2023/04/24 03:32:54;;;;;;;5.80;2.45;;;;;;;;;;5028829;28;20197;-67
2023/04/24 03:35:22;;;;;;;6.53;2.92;;;;;;;;;;5029561;28;20048;-68
2023/04/24 03:37:49;;;;;;;6.82;2.90;;;;;;;;;;5036331;28;20057;-67
2023/04/24 03:40:16;;;;;;;7.55;3.30;;;;;;;;;;5030634;28;20061;-67
2023/04/24 03:42:43;;;;;;;6.53;3.08;;;;;;;;;;5027652;28;20139;-69
2023/04/24 03:45:10;;;;;;;6.90;2.83;;;;;;;;;;5030007;28;20057;-67
2023/04/24 03:47:36;;;;;;;7.93;3.40;;;;;;;;;;5035607;28;20056;-70
2023/04/24 03:50:04;;;;;;;5.32;2.95;;;;;;;;;;5031378;28;20167;-67
2023/04/24 03:52:31;;;;;;;6.78;3.50;;;;;;;;;;5033790;28;20148;-67
2023/04/24 03:54:57;;;;;;;8.20;3.65;;;;;;;;;;5023551;28;20063;-67
2023/04/24 03:57:25;;;;;;;7.68;3.15;;;;;;;;;;5037129;28;20049;-68
2023/04/24 03:59:53;;;;;;;8.53;3.57;;;;;;;;;;5031440;28;20075;-67
2023/04/24 04:02:19;;;;;;;8.05;3.85;;;;;;;;;;5036134;28;20061;-68
2023/04/24 04:04:46;;;;;;;10.45;4.13;;;;;;;;;;5021221;28;20149;-67
2023/04/24 04:07:12;;;;;;;8.75;4.38;;;;;;;;;;5035352;28;20064;-67
2023/04/24 04:09:39;;;;;;;9.35;4.55;;;;;;;;;;5019286;28;20121;-67
2023/04/24 04:12:05;;;;;;;9.43;4.57;;;;;;;;;;5030942;28;20052;-69
2023/04/24 04:14:33;;;;;;;11.73;5.00;;;;;;;;;;5030251;28;20123;-67
2023/04/24 04:16:59;;;;;;;9.67;4.73;;;;;;;;;;5029187;28;20154;-67
2023/04/24 04:19:26;;;;;;;9.57;5.38;;;;;;;;;;5036265;28;20167;-67
2023/04/24 04:21:55;;;;;;;11.38;5.40;;;;;;;;;;5031961;28;20087;-68
2023/04/24 04:24:22;;;;;;;15.60;5.25;;;;;;;;;;5022910;28;20048;-67
2023/04/24 04:26:51;;;;;;;10.77;5.07;;;;;;;;;;5030111;28;20124;-66
2023/04/24 04:29:17;;;;;;;;;;;;;;;;;;5041021;28;20056;-66
2023/04/24 04:31:45;;;;;;;10.68;5.30;;;;;;;;;;5035309;28;19925;-67
2023/04/24 04:34:12;;;;;;;11.53;5.60;;;;;;;;;;5027948;28;20192;-68
2023/04/24 04:36:39;;;;;;;13.50;6.03;;;;;;;;;;5027921;28;20048;-67
2023/04/24 04:39:06;;;;;;;11.50;5.97;;;;;;;;;;5036600;28;20057;-67
2023/04/24 04:41:34;;;;;;;11.30;5.60;;;;;;;;;;5035531;28;20144;-67
2023/04/24 04:44:01;;;;;;;11.63;6.00;;;;;;;;;;5025870;28;20053;-67
2023/04/24 04:46:32;;;;;;;13.27;6.72;;;;;;;;;;5040393;28;20057;-67
2023/04/24 04:49:02;;;;;;;15.50;6.45;;;;;;;;;;5032721;28;20073;-67
2023/04/24 04:51:29;;;;;;;13.23;6.28;;;;;;;;;;5035023;28;20056;-67
2023/04/24 04:53:56;;;;;;;13.30;6.70;;;;;;;;;;5034498;28;20110;-67
2023/04/24 04:56:22;;;;;;;12.35;6.65;;;;;;;;;;5035942;28;20071;-67
2023/04/24 04:58:49;;;;;;;11.60;6.63;;;;;;;;;;5024174;28;20075;-68
2023/04/24 05:01:15;;;;;;;13.77;6.78;;;;;;;;;;5035940;28;20057;-69
2023/04/24 05:03:42;;;;;;;11.70;5.95;;;;;;;;;;5034765;28;20061;-67
2023/04/24 05:06:10;;;;;;;10.82;5.85;;;;;;;;;;5036457;28;20166;-67
2023/04/24 05:08:36;;;;;;;12.60;5.80;;;;;;;;;;5031934;28;20161;-67
2023/04/24 05:11:03;;;;;;;10.20;5.15;;;;;;;;;;5032656;28;20060;-67
2023/04/24 05:13:29;;;;;;;12.25;5.55;;;;;;;;;;5037872;28;20080;-67
2023/04/24 05:15:56;;;;;;;11.65;5.82;;;;;;;;;;5030663;28;20056;-66
2023/04/24 05:18:22;;;;;;;11.77;5.68;;;;;;;;;;5033771;28;20478;-66
2023/04/24 05:20:49;;;;;;;11.73;5.55;;;;;;;;;;5028463;28;20041;-66
2023/04/24 05:23:16;;;;;;;10.77;5.60;;;;;;;;;;5033959;28;20074;-66
2023/04/24 05:25:43;;;;;;;11.13;5.43;;;;;;;;;;5033639;28;20059;-67
2023/04/24 05:28:09;;;;;;;9.88;4.78;;;;;;;;;;5034738;28;21317;-66
2023/04/24 05:30:38;;;;;;;9.68;4.97;;;;;;;;;;5034313;28;20156;-66
2023/04/24 05:33:04;;;;;;;9.55;5.20;;;;;;;;;;5033508;28;20068;-66
2023/04/24 05:35:31;;;;;;;10.60;5.43;;;;;;;;;;5029736;28;20171;-66
2023/04/24 05:37:57;;;;;;;10.93;5.22;;;;;;;;;;5041527;28;20063;-66
2023/04/24 05:40:26;;;;;;;9.68;4.43;;;;;;;;;;5035251;28;20057;-67
2023/04/24 05:42:54;;;;;;;9.27;4.50;;;;;;;;;;5028525;28;20056;-67
2023/04/24 05:45:20;;;;;;;9.40;4.28;;;;;;;;;;5023886;28;20061;-66
2023/04/24 05:47:47;;;;;;;8.98;4.82;;;;;;;;;;5035564;28;20144;-66
2023/04/24 05:50:14;;;;;;;9.48;4.32;;;;;;;;;;5034253;28;20127;-67
2023/04/24 05:52:41;;;;;;;9.57;4.80;;;;;;;;;;5029976;28;20065;-67
2023/04/24 05:55:10;;;;;;;11.57;4.28;;;;;;;;;;5003720;28;20053;-66
2023/04/24 05:57:38;;;;;;;10.70;4.40;;;;;;;;;;5024172;28;20057;-67
2023/04/24 06:00:05;;;;;;;10.10;4.68;;;;;;;;;;5024651;28;20056;-67
2023/04/24 06:02:32;;;;;;;8.90;4.13;;;;;;;;;;5034804;28;20067;-68
2023/04/24 06:04:58;;;;;;;8.52;4.15;;;;;;;;;;5019365;28;20219;-66
2023/04/24 06:07:26;;;;;;;9.98;4.32;;;;;;;;;;5036582;28;20084;-67
2023/04/24 06:09:52;;;;;;;10.30;3.72;;;;;;;;;;5046271;28;20056;-66
2023/04/24 06:12:19;;;;;;;8.57;4.00;;;;;;;;;;5036568;28;20081;-67
2023/04/24 06:14:46;;;;;;;7.45;4.15;;;;;;;;;;5006907;28;20049;-65
2023/04/24 06:17:13;;;;;;;9.52;4.32;;;;;;;;;;5035753;28;20049;-69
2023/04/24 06:19:40;;;;;;;10.85;4.30;;;;;;;;;;5037401;28;20195;-67
2023/04/24 06:22:06;;;;;;;7.45;4.03;;;;;;;;;;5034945;28;20096;-66
2023/04/24 06:24:36;;;;;;;11.38;4.60;;;;;;;;;;5030809;28;20130;-67
2023/04/24 06:27:02;;;;;;;7.30;3.95;;;;;;;;;;5029581;28;20057;-68
2023/04/24 06:29:29;;;;;;;8.02;4.07;;;;;;;;;;5035531;28;20064;-66
2023/04/24 06:31:59;;;;;;;9.02;3.95;;;;;;;;;;5032503;28;20053;-66
2023/04/24 06:34:26;;;;;;;7.43;3.70;;;;;;;;;;5008617;28;20064;-68
2023/04/24 06:37:06;;;;;;;6.45;3.17;;;;;;;;;;5011054;28;20317;-66
2023/04/24 06:39:32;;;;;;;6.45;3.22;;;;;;;;;;5034714;28;20115;-66
2023/04/24 06:42:00;;;;;;;7.07;3.80;;;;;;;;;;5032319;28;20063;-68
2023/04/24 06:44:26;;;;;;;7.38;3.45;;;;;;;;;;5025808;28;20166;-66
2023/04/24 06:46:55;;;;;;;7.07;3.13;;;;;;;;;;5022590;28;20148;-65
2023/04/24 06:49:22;;;;;;;7.05;3.35;;;;;;;;;;5037328;28;20080;-67
2023/04/24 06:51:51;;;;;;;7.10;2.97;;;;;;;;;;5033073;28;20076;-66
2023/04/24 06:54:17;;;;;;;4.90;2.42;;;;;;;;;;5033444;28;20366;-65
2023/04/24 06:56:45;;;;;;;7.38;3.38;;;;;;;;;;5023894;28;20118;-67
2023/04/24 06:59:11;;;;;;;6.27;2.73;;;;;;;;;;5036588;28;20206;-66
2023/04/24 07:01:41;;;;;;;6.00;2.78;;;;;;;;;;5049336;28;20305;-66
2023/04/24 07:04:07;;;;;;;4.93;2.53;;;;;;;;;;5020956;28;20052;-66
2023/04/24 07:06:37;;;;;;;6.18;2.40;;;;;;;;;;5033877;28;20053;-66
2023/04/24 07:09:04;;;;;;;4.90;1.90;;;;;;;;;;5035440;28;20065;-66
2023/04/24 07:11:31;;;;;;;5.18;1.95;;;;;;;;;;5054243;28;20063;-64
2023/04/24 07:13:59;;;;;;;3.50;1.70;;;;;;;;;;5034025;28;20057;-66
2023/04/24 07:16:26;;;;;;;4.13;1.90;;;;;;;;;;5012327;28;20056;-68
2023/04/24 07:18:53;;;;;;;4.45;1.95;;;;;;;;;;5024060;28;20151;-68
2023/04/24 07:21:19;;;;;;;4.03;1.75;;;;;;;;;;5054227;28;20056;-69
2023/04/24 07:23:50;;;;;;;4.05;1.60;;;;;;;;;;5037826;28;20053;-66
2023/04/24 07:26:20;;;;;;;3.80;1.58;;;;;;;;;;5046417;28;20057;-65
2023/04/24 07:28:47;;;;;;;6.00;1.85;;;;;;;;;;5034096;28;20052;-67
2023/04/24 07:31:13;;;;;;;3.97;1.65;;;;;;;;;;5053056;28;20080;-66
2023/04/24 07:33:43;;;;;;;3.55;1.73;;;;;;;;;;5042444;28;20059;-67
2023/04/24 07:36:15;;;;;;;6.75;2.10;;;;;;;;;;5037622;28;20066;-66
2023/04/24 07:38:41;;;;;;;3.60;1.80;;;;;;;;;;5034642;28;20056;-65
2023/04/24 07:41:09;;;;;;;4.63;2.15;;;;;;;;;;5049044;28;20155;-68
2023/04/24 07:43:40;;;;;;;4.40;2.03;;;;;;;;;;5050728;28;20053;-67
2023/04/24 07:46:06;;;;;;;5.20;2.15;;;;;;;;;;5046907;28;20305;-66
2023/04/24 07:48:33;;;;;;;6.90;2.30;;;;;;;;;;5029646;28;20068;-69
2023/04/24 07:50:59;;;;;;;5.35;2.40;;;;;;;;;;5041461;28;21692;-68
2023/04/24 07:53:26;;;;;;;6.65;2.58;;;;;;;;;;5053798;28;20074;-68
2023/04/24 07:55:52;;;;;;;5.40;2.38;;;;;;;;;;5042506;28;20061;-68
2023/04/24 07:58:21;;;;;;;6.13;2.47;;;;;;;;;;5055108;28;20067;-67
2023/04/24 08:00:48;;;;;;;7.13;2.75;;;;;;;;;;5036769;28;20213;-66
2023/04/24 08:03:19;;;;;;;5.85;2.63;;;;;;;;;;5060049;28;20105;-68
2023/04/24 08:05:50;;;;;;;6.25;2.45;;;;;;;;;;5023221;28;20065;-67
2023/04/24 08:08:17;;;;;;;6.57;2.53;;;;;;;;;;5029039;28;20052;-67
2023/04/24 08:10:43;;;;;;;6.38;3.10;;;;;;;;;;5042741;28;20067;-68
2023/04/24 08:13:11;;;;;;;10.15;3.40;;;;;;;;;;5033850;28;20053;-69
2023/04/24 08:15:39;;;;;;;9.88;2.88;;;;;;;;;;5032506;28;20052;-66
2023/04/24 08:18:06;;;;;;;6.82;2.78;;;;;;;;;;5049412;28;20052;-67
2023/04/24 08:20:35;;;;;;;7.35;2.70;;;;;;;;;;5039032;28;20081;-67
2023/04/24 08:23:03;;;;;;;6.68;3.10;;;;;;;;;;5017192;28;20053;-67
2023/04/24 08:25:34;;;;;;;8.23;2.92;;;;;;;;;;5008557;28;20056;-67
2023/04/24 08:28:01;;;;;;;6.30;3.22;;;;;;;;;;5039561;28;20049;-67
2023/04/24 08:30:27;;;;;;;7.22;2.97;;;;;;;;;;5036070;28;20083;-67
2023/04/24 08:33:02;;;;;;;8.52;3.45;;;;;;;;;;5030033;28;21244;-66
2023/04/24 08:35:28;;;;;;;10.23;3.50;;;;;;;;;;5033095;28;20044;-68
2023/04/24 08:37:55;;;;;;;8.88;3.20;;;;;;;;;;5039895;28;20227;-65
2023/04/24 08:40:23;;;;;;;7.82;3.47;;;;;;;;;;5040083;28;20184;-67
2023/04/24 08:42:51;;;;;;;8.52;3.13;;;;;;;;;;5031419;28;20180;-66
2023/04/24 08:45:17;;;;;;;7.57;3.03;;;;;;;;;;5030056;28;20143;-67
2023/04/24 08:47:46;;;;;;;7.32;3.42;;;;;;;;;;5036749;28;20187;-68
2023/04/24 08:50:16;;;;;;;5.40;2.88;;;;;;;;;;5037840;28;20061;-66
2023/04/24 08:52:43;;;;;;;7.57;2.95;;;;;;;;;;5030533;28;20048;-69
2023/04/24 08:55:10;;;;;;;5.13;2.70;;;;;;;;;;5036437;28;20234;-66
2023/04/24 08:57:39;;;;;;;12.05;3.08;;;;;;;;;;5039139;28;20073;-68
2023/04/24 09:00:09;;;;;;;6.85;2.85;;;;;;;;;;5039333;28;20069;-65
2023/04/24 09:02:37;;;;;;;5.57;2.72;;;;;;;;;;5043529;28;20041;-69
2023/04/24 09:05:05;;;;;;;;;;;;;;;;;;5020719;28;20061;-68
2023/04/24 09:07:36;;;;;;;5.85;2.25;;;;;;;;;;5034653;28;20078;-69
2023/04/24 09:10:03;;;;;;;9.23;2.45;;;;;;;;;;5056875;28;20131;-66
2023/04/24 09:12:32;;;;;;;8.60;2.70;;;;;;;;;;5046007;28;20057;-68
2023/04/24 09:14:59;;;;;;;8.57;2.42;;;;;;;;;;5008168;28;20127;-68
2023/04/24 09:17:28;;;;;;;7.22;1.80;;;;;;;;;;5033580;28;20155;-69
2023/04/24 09:19:54;;;;;;;8.05;2.40;;;;;;;;;;5024495;28;20119;-69
2023/04/24 09:22:21;;;;;;;6.68;2.03;;;;;;;;;;5048898;28;20229;-68
2023/04/24 09:24:51;;;;;;;9.27;2.58;;;;;;;;;;5025076;28;20137;-69
2023/04/24 09:27:20;;;;;;;8.77;2.25;;;;;;;;;;5050625;28;20109;-69
2023/04/24 09:29:46;;;;;;;;;;;;;;;;;;5036408;28;20067;-69
2023/04/24 09:32:19;;;;;;;4.88;1.48;;;;;;;;;;5056430;28;19988;-69
2023/04/24 09:34:51;;;;;;;9.18;2.20;;;;;;;;;;4990589;28;20091;-68
2023/04/24 09:37:33;;;;;;;8.18;2.17;;;;;;;;;;5053234;28;20120;-69
2023/04/24 09:40:12;;;;;;;10.02;2.30;;;;;;;;;;5058456;28;20056;-69
2023/04/24 09:42:38;;;;;;;5.47;1.80;;;;;;;;;;5011209;28;20064;-68
2023/04/24 09:45:09;;;;;;;7.65;1.58;;;;;;;;;;4994206;28;20173;-70
2023/04/24 09:47:37;;;;;;;5.00;1.70;;;;;;;;;;5029671;28;20053;-69
2023/04/24 09:50:12;;;;;;;6.90;1.95;;;;;;;;;;5032490;28;20060;-69
2023/04/24 09:52:43;;;;;;;8.30;2.15;;;;;;;;;;5037115;28;20061;-68
2023/04/24 09:55:20;;;;;;;5.43;1.77;;;;;;;;;;5027063;28;20056;-70
2023/04/24 09:57:51;;;;;;;4.30;1.58;;;;;;;;;;5062993;28;20114;-69
2023/04/24 10:00:32;;;;;;;4.22;1.40;;;;;;;;;;5035761;28;20179;-68
2023/04/24 10:03:00;;;;;;;5.97;1.85;;;;;;;;;;5050912;28;20903;-70
2023/04/24 10:05:29;;;;;;;11.75;1.88;;;;;;;;;;5022925;28;20048;-69
2023/04/24 10:08:02;;;;;;;4.75;1.50;;;;;;;;;;5055873;28;20059;-71
2023/04/24 10:10:43;;;;;;;6.30;1.42;;;;;;;;;;5037147;28;20048;-71
2023/04/24 10:13:14;;;;;;;7.97;1.88;;;;;;;;;;5038863;28;20049;-72
2023/04/24 10:15:42;;;;;;;8.23;1.58;;;;;;;;;;4962301;28;20092;-72
2023/04/24 10:18:12;;;;;;;6.95;1.80;;;;;;;;;;5018537;28;20228;-72
2023/04/24 10:20:41;;;;;;;9.98;1.73;;;;;;;;;;5042905;28;20535;-71
2023/04/24 10:23:08;;;;;;;5.82;1.50;;;;;;;;;;5059167;28;20075;-72
2023/04/24 10:25:35;;;;;;;5.30;1.60;;;;;;;;;;5010385;28;20076;-72
2023/04/24 10:28:03;;;;;;;3.22;1.42;;;;;;;;;;5048230;28;20048;-71
2023/04/24 10:30:40;;;;;;;5.50;1.80;;;;;;;;;;5040197;28;20545;-71
2023/04/24 10:33:14;;;;;;;8.15;1.48;;;;;;;;;;5035901;28;20070;-71
2023/04/24 10:35:43;;;;;;;5.80;1.70;;;;;;;;;;5005149;28;20115;-72
2023/04/24 10:38:14;;;;;;;4.40;1.58;;;;;;;;;;5034989;28;20107;-71
2023/04/24 10:40:40;;;;;;;7.70;1.70;;;;;;;;;;5030487;28;20049;-71
2023/04/24 10:43:10;;;;;;;7.53;1.25;;;;;;;;;;5058218;28;20075;-71
2023/04/24 10:45:39;;;;;;;5.68;1.42;;;;;;;;;;4950924;28;20145;-71
2023/04/24 10:48:13;;;;;;;4.45;1.45;;;;;;;;;;4921035;29;20051;-71
2023/04/24 10:50:43;;;;;;;4.47;1.23;;;;;;;;;;4984913;28;20053;-72
2023/04/24 10:53:14;;;;;;;4.70;1.38;;;;;;;;;;5070677;28;20471;-72
2023/04/24 10:55:43;;;;;;;4.55;1.02;;;;;;;;;;4999495;28;20064;-72
2023/04/24 10:58:10;;;;;;;3.75;1.38;;;;;;;;;;5025459;28;20056;-71
2023/04/24 11:00:40;;;;;;;3.65;1.10;;;;;;;;;;5032378;28;20088;-71
2023/04/24 11:03:07;;;;;;;2.38;1.17;;;;;;;;;;5035834;28;20045;-71
2023/04/24 11:05:50;;;;;;;2.22;1.00;;;;;;;;;;5008684;28;20111;-71
2023/04/24 11:08:22;;;;;;;4.88;1.33;;;;;;;;;;5016849;28;20061;-71
2023/04/24 11:10:55;;;;;;;4.15;1.10;;;;;;;;;;5027785;28;20137;-71
2023/04/24 11:13:25;;;;;;;5.75;1.20;;;;;;;;;;5030422;28;20060;-72
2023/04/24 11:16:06;;;;;;;4.60;1.15;;;;;;;;;;5038831;28;20136;-72
2023/04/24 11:18:44;;;;;;;4.40;0.98;;;;;;;;;;5028053;28;20053;-70
2023/04/24 11:21:14;;;;;;;6.35;1.10;;;;;;;;;;5019289;28;20080;-71
2023/04/24 11:23:41;;;;;;;1.88;0.80;;;;;;;;;;5031070;28;20064;-71
2023/04/24 11:26:11;;;;;;;5.63;0.90;;;;;;;;;;5014082;28;20048;-72
2023/04/24 11:28:41;;;;;;;3.90;1.30;;;;;;;;;;5017587;28;20121;-70
2023/04/24 11:31:24;;;;;;;2.10;0.80;;;;;;;;;;5017331;28;20125;-72
2023/04/24 11:33:54;;;;;;;3.75;1.08;;;;;;;;;;5030199;28;20055;-72
2023/04/24 11:36:21;;;;;;;5.50;1.13;;;;;;;;;;4977363;28;20077;-70
2023/04/24 11:38:48;;;;;;;2.22;0.85;;;;;;;;;;4980174;28;20061;-69
2023/04/24 11:41:15;;;;;;;4.40;0.70;;;;;;;;;;5021745;28;20068;-70
2023/04/24 11:43:42;;;;;;;3.13;0.70;;;;;;;;;;5035780;28;20067;-69
2023/04/24 11:46:10;;;;;;;3.70;0.85;;;;;;;;;;5027173;28;20061;-71
2023/04/24 11:48:39;;;;;;;1.08;0.60;;;;;;;;;;5028407;28;20061;-72
2023/04/24 11:51:08;;;;;;;1.67;0.90;;;;;;;;;;5034725;28;20076;-72
2023/04/24 11:53:34;;;;;;;2.63;0.85;;;;;;;;;;5028791;28;20068;-70
2023/04/24 11:56:03;;;;;;;2.25;0.68;;;;;;;;;;5017605;28;20158;-71
2023/04/24 11:58:36;;;;;;;1.73;0.82;;;;;;;;;;5016158;28;20060;-71
2023/04/24 12:01:09;;;;;;;1.75;0.60;;;;;;;;;;5056238;28;20083;-71
2023/04/24 12:03:38;;;;;;;3.03;0.60;;;;;;;;;;5045774;28;20045;-71
2023/04/24 12:06:09;;;;;;;2.58;0.70;;;;;;;;;;4999784;28;20100;-72
2023/04/24 12:08:36;;;;;;;2.50;0.70;;;;;;;;;;5018203;28;20103;-71
2023/04/24 12:11:03;;;;;;;2.83;0.68;;;;;;;;;;5034459;28;20049;-71
2023/04/24 12:13:30;;;;;;;2.60;0.60;;;;;;;;;;5037092;28;20049;-72
2023/04/24 12:15:57;;;;;;;1.02;0.60;;;;;;;;;;4976614;28;20060;-71
2023/04/24 12:18:31;;;;;;;2.75;0.60;;;;;;;;;;5046855;28;20060;-71
2023/04/24 12:21:26;;;;;;;5.28;0.80;;;;;;;;;;5025286;28;20059;-71
2023/04/24 12:23:55;;;;;;;3.75;0.80;;;;;;;;;;5038688;28;20049;-71
2023/04/24 12:26:22;;;;;;;;;;;;;;;;;;5021113;28;20107;-71
2023/04/24 12:28:50;;;;;;;1.52;0.60;;;;;;;;;;5046570;28;19928;-68
2023/04/24 12:31:16;;;;;;;2.78;0.80;;;;;;;;;;5032988;28;20056;-70
2023/04/24 12:33:50;;;;;;;2.58;0.70;;;;;;;;;;5053633;28;20091;-70
2023/04/24 12:36:18;;;;;;;1.92;0.70;;;;;;;;;;5033417;28;20057;-69
2023/04/24 12:38:46;;;;;;;2.07;1.23;;;;;;;;;;5026830;28;20084;-70
2023/04/24 12:41:13;;;;;;;1.85;0.57;;;;;;;;;;5036799;28;20307;-68
2023/04/24 12:43:52;;;;;;;1.35;0.47;;;;;;;;;;5052329;28;20061;-70
2023/04/24 12:46:19;;;;;;;1.02;0.60;;;;;;;;;;5018369;28;20048;-69
2023/04/24 12:48:47;;;;;;;2.95;0.65;;;;;;;;;;5009629;28;20129;-69
2023/04/24 12:51:13;;;;;;;1.73;0.63;;;;;;;;;;5023585;28;20053;-70
2023/04/24 12:53:41;;;;;;;4.82;0.70;;;;;;;;;;5055005;28;20064;-69
2023/04/24 12:56:08;;;;;;;0.75;0.52;;;;;;;;;;5024425;28;20052;-70
2023/04/24 12:58:40;;;;;;;4.35;0.80;;;;;;;;;;5051523;28;20063;-69
2023/04/24 13:01:07;;;;;;;3.20;0.57;;;;;;;;;;5047017;28;20052;-69
2023/04/24 13:03:39;;;;;;;3.13;0.60;;;;;;;;;;5052991;28;20083;-70
2023/04/24 13:06:07;;;;;;;1.77;0.57;;;;;;;;;;4988255;28;20073;-69
2023/04/24 13:08:34;;;;;;;2.50;0.70;;;;;;;;;;5017377;28;20057;-69
2023/04/24 13:11:25;;;;;;;;;;;;;;;;;;;;;
2023/04/24 13:13:52;;;;;;;2.55;0.68;;;;;;;;;;5037272;28;20068;-70
2023/04/24 13:16:23;;;;;;;1.67;0.80;;;;;;;;;;4992878;28;20063;-69
2023/04/24 13:18:58;;;;;;;3.78;0.80;;;;;;;;;;5010092;28;20057;-72
2023/04/24 13:21:28;;;;;;;4.57;0.80;;;;;;;;;;5015352;28;20053;-70
2023/04/24 13:23:54;;;;;;;3.70;0.90;;;;;;;;;;5071631;28;20049;-69
2023/04/24 13:29:05;;;;;;;3.30;1.00;;;;;;;;;;5031815;28;20136;-69
2023/04/24 13:31:31;;;;;;;3.78;1.00;;;;;;;;;;5043078;28;20107;-70
2023/04/24 13:33:58;;;;;;;4.10;1.00;;;;;;;;;;5031335;28;20079;-69
2023/04/24 13:36:27;;;;;;;6.65;1.20;;;;;;;;;;5011427;28;20064;-70
2023/04/24 13:38:56;;;;;;;4.25;0.90;;;;;;;;;;5029597;28;20067;-70
2023/04/24 13:41:26;;;;;;;3.58;1.08;;;;;;;;;;5035362;28;20102;-69
2023/04/24 13:43:53;;;;;;;4.55;1.63;;;;;;;;;;5033597;28;20140;-70
2023/04/24 13:46:20;;;;;;;3.03;0.90;;;;;;;;;;5025548;28;20045;-69
2023/04/24 13:48:47;;;;;;;5.95;1.13;;;;;;;;;;5031361;28;20083;-69
2023/04/24 13:51:14;;;;;;;6.07;1.02;;;;;;;;;;5040750;28;20072;-69
2023/04/24 13:53:40;;;;;;;5.63;1.30;;;;;;;;;;5026754;28;20056;-69
2023/04/24 13:56:13;;;;;;;6.43;1.00;;;;;;;;;;5023427;28;20060;-70
2023/04/24 13:58:41;;;;;;;5.05;1.20;;;;;;;;;;5035140;28;20064;-70
2023/04/24 14:01:12;;;;;;;8.15;1.30;;;;;;;;;;5052612;28;20052;-69
2023/04/24 14:03:39;;;;;;;7.88;1.58;;;;;;;;;;5040546;28;20084;-69
2023/04/24 14:06:07;;;;;;;4.78;1.23;;;;;;;;;;5006951;28;20060;-69
2023/04/24 14:08:35;;;;;;;5.78;1.27;;;;;;;;;;5018641;28;20137;-71
2023/04/24 14:11:02;;;;;;;6.38;1.20;;;;;;;;;;5035628;28;20056;-69
2023/04/24 14:13:29;;;;;;;5.75;1.70;;;;;;;;;;5033268;28;20155;-70
2023/04/24 14:16:02;;;;;;;8.25;1.38;;;;;;;;;;5006077;28;20061;-71
2023/04/24 14:18:36;;;;;;;2.85;1.00;;;;;;;;;;5040739;28;20080;-69
2023/04/24 14:21:03;;;;;;;7.90;1.33;;;;;;;;;;5032681;28;20049;-70
2023/04/24 14:23:30;;;;;;;5.13;1.52;;;;;;;;;;5065041;28;20056;-69
2023/04/24 14:25:57;;;;;;;9.07;1.40;;;;;;;;;;5011268;28;20068;-71
2023/04/24 14:28:28;;;;;;;4.80;1.25;;;;;;;;;;5045626;28;20060;-70
2023/04/24 14:30:57;;;;;;;9.63;1.42;;;;;;;;;;5025525;28;20064;-69
2023/04/24 14:33:26;;;;;;;9.07;1.35;;;;;;;;;;5064591;28;20190;-70
2023/04/24 14:35:53;;;;;;;4.57;1.13;;;;;;;;;;5035626;28;20064;-70
2023/04/24 14:38:19;;;;;;;3.88;1.33;;;;;;;;;;5045241;28;20143;-70
2023/04/24 14:40:46;;;;;;;6.93;1.60;;;;;;;;;;5029521;28;20064;-71
2023/04/24 14:43:13;;;;;;;3.10;1.30;;;;;;;;;;5043554;28;20083;-70
2023/04/24 14:45:41;;;;;;;7.20;1.40;;;;;;;;;;5035193;28;20135;-69
2023/04/24 14:48:11;;;;;;;4.05;1.30;;;;;;;;;;4906475;28;20054;-72
2023/04/24 14:50:41;;;;;;;6.80;1.48;;;;;;;;;;4971736;28;20205;-71
2023/04/24 14:53:10;;;;;;;4.53;1.30;;;;;;;;;;5027029;28;20046;-71